WARR/SUB METAR and TAF weather

Enter ICAO airport designator
Station Type Date Time Source
WARR METAR 2019/11/26 03:00 UTC NOAA

WARR 260300Z 07007KT 010V120 8000 SCT020 33/24 Q1009 NOSIG


Station Type Date Time Source
WARR Decoded METAR 2019/11/26 03:00 UTC NOAA

Station name not available
Nov 25, 2019 - 10:00 PM EST / 2019.11.26 0300 UTC
Wind: from the ENE (070 degrees) at 8 MPH (7 KT) (direction variable):0
Visibility: 4 mile(s):0
Sky conditions: partly cloudy
Temperature: 91 F (33 C)
Heat index: 101.5 F (38.6 C):1
Dew Point: 75 F (24 C)
Relative Humidity: 59%
Pressure (altimeter): 29.80 in. Hg (1009 hPa)
ob: WARR 260300Z 07007KT 010V120 8000 SCT020 33/24 Q1009 NOSIG
cycle: 3

Station Type Date Time Source
WARR TAF 2019/12/16 06:09 UTC NOAA

TAF WARR 160500Z 1606/1706 10010KT 9999 FEW020 PROB40
TEMPO 1613/1615 4000 TSRA SCT018CB
BECMG 1612/1614 26005KT 4000 HZ

Example: see airport list